Ana Sayfa
METAR-TAF:

METAR-TAF

Havaalanları :

Lawson Army Airfield

Fort Benning / Columbus, Georgia, Amerika Birleşik Devletleri

Enlem: 32-20N, Boylam: 084-50W, yükseklik: 71 m

Güncel hava durumu gözlemi

Rapor saat 18:55 UTC de 20 dakika önce yapıldı.
Rüzgar kuzey/kuzeybatıdan 8 kt
Sıcaklık 37°C
Nem 24%
Basınç 1013 hPa
Görüş mesafesi: 16.1 km
Açık gökyüzü

METAR: KLSF 251855Z AUTO 34008KT 10SM CLR 37/13 A2991 RMK AO2 SLP130 T03680129 RVRNO VISNO RWY33 $

Saat: 15:15 (19:15 UTC)

Tahmin

Rapor saat 12:51 UTC de 6 saat ve 24 dakika önce yapıldı.
Ayın 25'si saat 13 UTC'den ayın 26'si saat 19 UTC'ye kadar geçerli Tahmin
Rüzgar değişken yönden 6 kt
Görüş mesafesi 10 km veya daha fazla
Açık gökyüzü

TAF: KLSF 251251Z 2513/2619 VRB06KT 9999 SKC QNH2980INS TX37/2522Z TN18/2609Z

4.000'den fazla havaalanı için hava durumu gözlemleri ve tahminleri (METAR ve TAF raporları).

Kullanılabilir istasyonlar harita üzerinde sarı ve kırmızı noktalarla gösterilir.

İstasyonun adını görmek için fareyi noktanın üzerinde gezdirin.

Sonrasında hava gözlem ve tahminlerini görmek için tıklayın.

Haritayı değiştirmek için: yaklaştırmak için siyah artı işaretli yeşil düğmeye ve uzaklaştırmak için de eksi işaretli düğmeye hızla tıklayın; bitişik haritalar için yeşil okları kullanın.


METAR-TAF: